sensor_id;sensor_type;location;lat;lon;timestamp;temperature;humidity
831;DHT22;397;50.564;7.272;2022-09-09T00:00:21;17.50;99.90
831;DHT22;397;50.564;7.272;2022-09-09T00:03:05;17.50;99.90
831;DHT22;397;50.564;7.272;2022-09-09T00:05:48;17.50;99.90
831;DHT22;397;50.564;7.272;2022-09-09T00:08:18;17.50;99.90
831;DHT22;397;50.564;7.272;2022-09-09T00:10:44;17.60;99.90
831;DHT22;397;50.564;7.272;2022-09-09T00:16:27;17.60;99.90
831;DHT22;397;50.564;7.272;2022-09-09T00:19:12;17.50;99.90
831;DHT22;397;50.564;7.272;2022-09-09T00:21:38;17.40;99.90
831;DHT22;397;50.564;7.272;2022-09-09T00:24:23;17.50;99.90
831;DHT22;397;50.564;7.272;2022-09-09T00:26:45;17.40;99.90
831;DHT22;397;50.564;7.272;2022-09-09T00:29:35;17.40;99.90
831;DHT22;397;50.564;7.272;2022-09-09T00:32:11;17.50;99.90
831;DHT22;397;50.564;7.272;2022-09-09T00:34:36;17.50;99.90
831;DHT22;397;50.564;7.272;2022-09-09T00:37:07;17.50;99.90
831;DHT22;397;50.564;7.272;2022-09-09T00:39:48;17.50;99.90
831;DHT22;397;50.564;7.272;2022-09-09T00:42:55;17.20;99.90
831;DHT22;397;50.564;7.272;2022-09-09T00:44:59;17.00;99.90
831;DHT22;397;50.564;7.272;2022-09-09T00:47:51;17.00;99.90
831;DHT22;397;50.564;7.272;2022-09-09T00:50:35;17.10;99.90
831;DHT22;397;50.564;7.272;2022-09-09T00:56:18;17.10;99.90
831;DHT22;397;50.564;7.272;2022-09-09T01:05:12;17.30;99.90
831;DHT22;397;50.564;7.272;2022-09-09T01:07:30;17.10;99.90
831;DHT22;397;50.564;7.272;2022-09-09T01:10:00;17.20;99.90
831;DHT22;397;50.564;7.272;2022-09-09T01:12:41;17.20;99.90
831;DHT22;397;50.564;7.272;2022-09-09T01:15:29;17.30;99.90
831;DHT22;397;50.564;7.272;2022-09-09T01:17:57;17.40;99.90
831;DHT22;397;50.564;7.272;2022-09-09T01:20:31;17.30;99.90
831;DHT22;397;50.564;7.272;2022-09-09T01:28:33;17.40;99.90
831;DHT22;397;50.564;7.272;2022-09-09T01:31:05;17.40;99.90
831;DHT22;397;50.564;7.272;2022-09-09T01:33:33;17.40;99.90
831;DHT22;397;50.564;7.272;2022-09-09T01:36:04;17.30;99.90
831;DHT22;397;50.564;7.272;2022-09-09T01:38:33;17.20;99.90
831;DHT22;397;50.564;7.272;2022-09-09T01:41:02;17.10;99.90
831;DHT22;397;50.564;7.272;2022-09-09T01:43:29;17.20;99.90
831;DHT22;397;50.564;7.272;2022-09-09T01:45:59;17.20;99.90
831;DHT22;397;50.564;7.272;2022-09-09T01:48:28;17.10;99.90
831;DHT22;397;50.564;7.272;2022-09-09T01:50:56;16.90;99.90
831;DHT22;397;50.564;7.272;2022-09-09T01:53:24;17.00;99.90
831;DHT22;397;50.564;7.272;2022-09-09T02:01:46;16.90;99.90
831;DHT22;397;50.564;7.272;2022-09-09T02:04:36;16.90;99.90
831;DHT22;397;50.564;7.272;2022-09-09T02:07:10;17.00;99.90
831;DHT22;397;50.564;7.272;2022-09-09T02:09:35;17.00;99.90
831;DHT22;397;50.564;7.272;2022-09-09T02:12:13;17.00;99.90
831;DHT22;397;50.564;7.272;2022-09-09T02:14:42;17.10;99.90
831;DHT22;397;50.564;7.272;2022-09-09T02:17:11;16.90;99.90
831;DHT22;397;50.564;7.272;2022-09-09T02:19:48;16.90;99.90
831;DHT22;397;50.564;7.272;2022-09-09T02:22:17;16.90;99.90
831;DHT22;397;50.564;7.272;2022-09-09T02:24:47;16.90;99.90
831;DHT22;397;50.564;7.272;2022-09-09T02:27:18;16.90;99.90
831;DHT22;397;50.564;7.272;2022-09-09T02:29:46;17.00;99.90
831;DHT22;397;50.564;7.272;2022-09-09T02:32:20;16.90;99.90
831;DHT22;397;50.564;7.272;2022-09-09T02:34:58;16.90;99.90
831;DHT22;397;50.564;7.272;2022-09-09T02:37:30;17.00;99.90
831;DHT22;397;50.564;7.272;2022-09-09T02:39:58;17.00;99.90
831;DHT22;397;50.564;7.272;2022-09-09T02:42:25;17.10;99.90
831;DHT22;397;50.564;7.272;2022-09-09T02:44:53;17.10;99.90
831;DHT22;397;50.564;7.272;2022-09-09T02:47:34;17.00;99.90
831;DHT22;397;50.564;7.272;2022-09-09T02:53:01;17.10;99.90
831;DHT22;397;50.564;7.272;2022-09-09T02:55:41;17.10;99.90
831;DHT22;397;50.564;7.272;2022-09-09T02:58:11;17.20;99.90
831;DHT22;397;50.564;7.272;2022-09-09T03:00:40;17.20;99.90
831;DHT22;397;50.564;7.272;2022-09-09T03:03:08;17.30;99.90
831;DHT22;397;50.564;7.272;2022-09-09T03:05:36;17.30;99.90
831;DHT22;397;50.564;7.272;2022-09-09T03:08:05;17.20;99.90
831;DHT22;397;50.564;7.272;2022-09-09T03:10:33;17.10;99.90
831;DHT22;397;50.564;7.272;2022-09-09T03:13:01;17.20;99.90
831;DHT22;397;50.564;7.272;2022-09-09T03:15:29;17.20;99.90
831;DHT22;397;50.564;7.272;2022-09-09T03:17:58;17.20;99.90
831;DHT22;397;50.564;7.272;2022-09-09T03:20:28;17.10;99.90
831;DHT22;397;50.564;7.272;2022-09-09T03:22:56;17.10;99.90
831;DHT22;397;50.564;7.272;2022-09-09T03:25:24;17.10;99.90
831;DHT22;397;50.564;7.272;2022-09-09T03:27:53;16.90;99.90
831;DHT22;397;50.564;7.272;2022-09-09T03:30:22;16.90;99.90
831;DHT22;397;50.564;7.272;2022-09-09T03:32:50;16.90;99.90
831;DHT22;397;50.564;7.272;2022-09-09T03:35:18;17.00;99.90
831;DHT22;397;50.564;7.272;2022-09-09T03:37:46;17.10;99.90
831;DHT22;397;50.564;7.272;2022-09-09T03:40:14;17.00;99.90
831;DHT22;397;50.564;7.272;2022-09-09T03:42:41;17.10;99.90
831;DHT22;397;50.564;7.272;2022-09-09T03:45:10;17.10;99.90
831;DHT22;397;50.564;7.272;2022-09-09T03:47:37;17.20;99.90
831;DHT22;397;50.564;7.272;2022-09-09T03:50:06;17.10;99.90
831;DHT22;397;50.564;7.272;2022-09-09T03:52:40;17.10;99.90
831;DHT22;397;50.564;7.272;2022-09-09T03:55:06;17.10;99.90
831;DHT22;397;50.564;7.272;2022-09-09T03:57:34;17.10;99.90
831;DHT22;397;50.564;7.272;2022-09-09T04:00:05;17.00;99.90
831;DHT22;397;50.564;7.272;2022-09-09T04:02:33;16.90;99.90
831;DHT22;397;50.564;7.272;2022-09-09T04:05:01;17.00;99.90
831;DHT22;397;50.564;7.272;2022-09-09T04:07:28;17.00;99.90
831;DHT22;397;50.564;7.272;2022-09-09T04:09:56;17.00;99.90
831;DHT22;397;50.564;7.272;2022-09-09T04:12:23;17.00;99.90
831;DHT22;397;50.564;7.272;2022-09-09T04:14:51;17.00;99.90
831;DHT22;397;50.564;7.272;2022-09-09T04:17:18;17.00;99.90
831;DHT22;397;50.564;7.272;2022-09-09T04:19:46;16.90;99.90
831;DHT22;397;50.564;7.272;2022-09-09T04:22:13;16.90;99.90
831;DHT22;397;50.564;7.272;2022-09-09T04:24:41;16.90;99.90
831;DHT22;397;50.564;7.272;2022-09-09T04:27:08;16.90;99.90
831;DHT22;397;50.564;7.272;2022-09-09T04:29:36;16.80;99.90
831;DHT22;397;50.564;7.272;2022-09-09T04:32:03;16.70;99.90
831;DHT22;397;50.564;7.272;2022-09-09T04:34:31;16.80;99.90
831;DHT22;397;50.564;7.272;2022-09-09T04:36:59;16.80;99.90
831;DHT22;397;50.564;7.272;2022-09-09T04:39:27;16.80;99.90
831;DHT22;397;50.564;7.272;2022-09-09T04:41:55;16.80;99.90
831;DHT22;397;50.564;7.272;2022-09-09T04:44:23;16.80;99.90
831;DHT22;397;50.564;7.272;2022-09-09T04:46:50;16.90;99.90
831;DHT22;397;50.564;7.272;2022-09-09T04:49:18;16.90;99.90
831;DHT22;397;50.564;7.272;2022-09-09T04:51:46;16.80;99.90
831;DHT22;397;50.564;7.272;2022-09-09T04:54:13;16.80;99.90
831;DHT22;397;50.564;7.272;2022-09-09T04:56:41;16.80;99.90
831;DHT22;397;50.564;7.272;2022-09-09T04:59:09;16.80;99.90
831;DHT22;397;50.564;7.272;2022-09-09T05:01:37;16.70;99.90
831;DHT22;397;50.564;7.272;2022-09-09T05:04:04;16.80;99.90
831;DHT22;397;50.564;7.272;2022-09-09T05:06:32;16.80;99.90
831;DHT22;397;50.564;7.272;2022-09-09T05:09:00;16.90;99.90
831;DHT22;397;50.564;7.272;2022-09-09T05:11:29;17.00;99.90
831;DHT22;397;50.564;7.272;2022-09-09T05:13:58;17.10;99.90
831;DHT22;397;50.564;7.272;2022-09-09T05:16:26;17.10;99.90
831;DHT22;397;50.564;7.272;2022-09-09T05:18:53;17.10;99.90
831;DHT22;397;50.564;7.272;2022-09-09T05:21:22;17.10;99.90
831;DHT22;397;50.564;7.272;2022-09-09T05:23:50;17.00;99.90
831;DHT22;397;50.564;7.272;2022-09-09T05:26:20;17.00;99.90
831;DHT22;397;50.564;7.272;2022-09-09T05:28:48;17.00;99.90
831;DHT22;397;50.564;7.272;2022-09-09T05:31:18;17.00;99.90
831;DHT22;397;50.564;7.272;2022-09-09T05:33:47;17.00;99.90
831;DHT22;397;50.564;7.272;2022-09-09T05:36:17;17.10;99.90
831;DHT22;397;50.564;7.272;2022-09-09T05:38:46;17.00;99.90
831;DHT22;397;50.564;7.272;2022-09-09T05:41:14;17.10;99.90
831;DHT22;397;50.564;7.272;2022-09-09T05:43:46;17.10;99.90
831;DHT22;397;50.564;7.272;2022-09-09T05:46:17;17.20;99.90
831;DHT22;397;50.564;7.272;2022-09-09T05:48:47;17.30;99.90
831;DHT22;397;50.564;7.272;2022-09-09T05:51:23;17.40;99.90
831;DHT22;397;50.564;7.272;2022-09-09T05:53:48;17.50;99.90
831;DHT22;397;50.564;7.272;2022-09-09T05:56:22;17.70;99.90
831;DHT22;397;50.564;7.272;2022-09-09T05:58:52;17.90;99.90
831;DHT22;397;50.564;7.272;2022-09-09T06:01:24;18.10;99.90
831;DHT22;397;50.564;7.272;2022-09-09T06:03:53;18.00;99.90
831;DHT22;397;50.564;7.272;2022-09-09T06:06:22;17.80;99.90
831;DHT22;397;50.564;7.272;2022-09-09T06:08:53;17.70;99.90
831;DHT22;397;50.564;7.272;2022-09-09T06:11:27;17.90;99.90
831;DHT22;397;50.564;7.272;2022-09-09T06:13:51;18.00;99.90
831;DHT22;397;50.564;7.272;2022-09-09T06:16:25;18.10;99.90
831;DHT22;397;50.564;7.272;2022-09-09T06:18:54;18.30;99.90
831;DHT22;397;50.564;7.272;2022-09-09T06:21:27;18.70;99.90
831;DHT22;397;50.564;7.272;2022-09-09T06:23:56;18.70;99.90
831;DHT22;397;50.564;7.272;2022-09-09T06:26:26;19.00;99.90
831;DHT22;397;50.564;7.272;2022-09-09T06:28:54;19.20;99.90
831;DHT22;397;50.564;7.272;2022-09-09T06:31:25;19.20;99.90
831;DHT22;397;50.564;7.272;2022-09-09T06:33:55;19.20;99.90
831;DHT22;397;50.564;7.272;2022-09-09T06:36:25;19.40;99.90
831;DHT22;397;50.564;7.272;2022-09-09T06:38:53;19.40;99.90
831;DHT22;397;50.564;7.272;2022-09-09T06:41:23;19.30;99.90
831;DHT22;397;50.564;7.272;2022-09-09T06:43:52;19.50;99.90
831;DHT22;397;50.564;7.272;2022-09-09T06:46:24;19.70;99.90
831;DHT22;397;50.564;7.272;2022-09-09T06:48:55;19.70;99.90
831;DHT22;397;50.564;7.272;2022-09-09T06:51:25;19.70;99.90
831;DHT22;397;50.564;7.272;2022-09-09T06:53:55;19.80;99.90
831;DHT22;397;50.564;7.272;2022-09-09T06:56:30;19.80;99.90
831;DHT22;397;50.564;7.272;2022-09-09T06:59:00;19.90;99.90
831;DHT22;397;50.564;7.272;2022-09-09T07:01:33;19.80;99.90
831;DHT22;397;50.564;7.272;2022-09-09T07:04:01;19.90;99.90
831;DHT22;397;50.564;7.272;2022-09-09T07:06:42;20.00;99.90
831;DHT22;397;50.564;7.272;2022-09-09T07:09:16;20.10;99.90
831;DHT22;397;50.564;7.272;2022-09-09T07:11:50;20.10;99.90
831;DHT22;397;50.564;7.272;2022-09-09T07:14:14;20.10;99.90
831;DHT22;397;50.564;7.272;2022-09-09T07:16:43;20.10;99.90
831;DHT22;397;50.564;7.272;2022-09-09T07:19:11;20.20;99.90
831;DHT22;397;50.564;7.272;2022-09-09T07:21:39;20.20;99.90
831;DHT22;397;50.564;7.272;2022-09-09T07:24:06;20.40;99.90
831;DHT22;397;50.564;7.272;2022-09-09T07:26:37;20.40;99.90
831;DHT22;397;50.564;7.272;2022-09-09T07:29:05;20.30;99.90
831;DHT22;397;50.564;7.272;2022-09-09T07:31:35;20.30;99.90
831;DHT22;397;50.564;7.272;2022-09-09T07:34:04;20.30;99.90
831;DHT22;397;50.564;7.272;2022-09-09T07:36:37;20.30;99.90
831;DHT22;397;50.564;7.272;2022-09-09T07:41:53;20.40;99.90
831;DHT22;397;50.564;7.272;2022-09-09T07:44:22;20.50;99.90
831;DHT22;397;50.564;7.272;2022-09-09T07:46:51;20.50;99.90
831;DHT22;397;50.564;7.272;2022-09-09T07:49:18;20.50;99.90
831;DHT22;397;50.564;7.272;2022-09-09T07:51:47;20.50;99.90
831;DHT22;397;50.564;7.272;2022-09-09T07:54:17;20.10;99.90
831;DHT22;397;50.564;7.272;2022-09-09T07:56:47;20.10;99.90
831;DHT22;397;50.564;7.272;2022-09-09T07:59:16;20.00;99.90
831;DHT22;397;50.564;7.272;2022-09-09T08:01:47;20.30;99.90
831;DHT22;397;50.564;7.272;2022-09-09T08:04:17;20.40;99.90
831;DHT22;397;50.564;7.272;2022-09-09T08:06:57;20.60;99.90
831;DHT22;397;50.564;7.272;2022-09-09T08:09:22;21.00;99.90
831;DHT22;397;50.564;7.272;2022-09-09T08:11:52;20.80;99.90
831;DHT22;397;50.564;7.272;2022-09-09T08:14:20;20.50;99.90
831;DHT22;397;50.564;7.272;2022-09-09T08:16:49;20.30;99.90
831;DHT22;397;50.564;7.272;2022-09-09T08:19:17;20.40;99.90
831;DHT22;397;50.564;7.272;2022-09-09T08:21:45;20.70;99.90
831;DHT22;397;50.564;7.272;2022-09-09T08:24:13;20.90;99.90
831;DHT22;397;50.564;7.272;2022-09-09T08:26:43;21.10;99.90
831;DHT22;397;50.564;7.272;2022-09-09T08:29:12;21.10;99.90
831;DHT22;397;50.564;7.272;2022-09-09T08:31:49;21.00;99.90
831;DHT22;397;50.564;7.272;2022-09-09T08:34:14;20.80;99.90
831;DHT22;397;50.564;7.272;2022-09-09T08:36:43;21.00;99.90
831;DHT22;397;50.564;7.272;2022-09-09T08:39:13;21.30;99.90
831;DHT22;397;50.564;7.272;2022-09-09T08:45:00;21.40;99.90
831;DHT22;397;50.564;7.272;2022-09-09T08:50:05;21.50;99.90
831;DHT22;397;50.564;7.272;2022-09-09T08:52:37;21.30;99.90
831;DHT22;397;50.564;7.272;2022-09-09T08:58:12;20.90;99.90
831;DHT22;397;50.564;7.272;2022-09-09T09:09:04;21.10;99.90
831;DHT22;397;50.564;7.272;2022-09-09T09:11:39;21.40;99.90
831;DHT22;397;50.564;7.272;2022-09-09T09:14:14;21.60;99.90
831;DHT22;397;50.564;7.272;2022-09-09T09:17:07;21.20;99.90
831;DHT22;397;50.564;7.272;2022-09-09T09:19:38;21.30;99.90
831;DHT22;397;50.564;7.272;2022-09-09T09:22:26;21.50;99.90
831;DHT22;397;50.564;7.272;2022-09-09T09:25:03;21.50;99.90
831;DHT22;397;50.564;7.272;2022-09-09T09:27:34;21.40;99.90
831;DHT22;397;50.564;7.272;2022-09-09T09:30:22;21.30;99.90
831;DHT22;397;50.564;7.272;2022-09-09T09:32:36;21.80;99.90
831;DHT22;397;50.564;7.272;2022-09-09T09:35:09;22.10;99.90
831;DHT22;397;50.564;7.272;2022-09-09T09:37:35;21.90;99.90
831;DHT22;397;50.564;7.272;2022-09-09T09:40:14;21.60;99.90
831;DHT22;397;50.564;7.272;2022-09-09T09:42:53;21.40;99.90
831;DHT22;397;50.564;7.272;2022-09-09T09:45:35;21.10;99.90
831;DHT22;397;50.564;7.272;2022-09-09T09:48:06;21.20;99.90
831;DHT22;397;50.564;7.272;2022-09-09T09:50:34;21.00;99.90
831;DHT22;397;50.564;7.272;2022-09-09T09:53:04;20.70;99.90
831;DHT22;397;50.564;7.272;2022-09-09T09:55:34;20.90;99.90
831;DHT22;397;50.564;7.272;2022-09-09T09:58:13;20.80;99.90
831;DHT22;397;50.564;7.272;2022-09-09T10:00:36;20.60;99.90
831;DHT22;397;50.564;7.272;2022-09-09T10:03:13;20.70;99.90
831;DHT22;397;50.564;7.272;2022-09-09T10:05:35;20.70;99.90
831;DHT22;397;50.564;7.272;2022-09-09T10:14:33;20.40;99.90
831;DHT22;397;50.564;7.272;2022-09-09T10:19:20;20.60;99.90
831;DHT22;397;50.564;7.272;2022-09-09T10:24:40;20.80;99.90
831;DHT22;397;50.564;7.272;2022-09-09T10:27:55;20.80;99.90
831;DHT22;397;50.564;7.272;2022-09-09T10:29:57;20.90;99.90
831;DHT22;397;50.564;7.272;2022-09-09T10:32:40;20.90;99.90
831;DHT22;397;50.564;7.272;2022-09-09T10:43:39;21.20;99.90
831;DHT22;397;50.564;7.272;2022-09-09T10:46:38;21.40;99.90
831;DHT22;397;50.564;7.272;2022-09-09T10:57:42;21.50;99.90
831;DHT22;397;50.564;7.272;2022-09-09T11:00:19;21.80;99.90
831;DHT22;397;50.564;7.272;2022-09-09T11:03:00;21.80;99.90
831;DHT22;397;50.564;7.272;2022-09-09T11:05:42;21.60;99.90
831;DHT22;397;50.564;7.272;2022-09-09T11:08:14;21.50;99.90
831;DHT22;397;50.564;7.272;2022-09-09T11:11:20;21.40;99.90
831;DHT22;397;50.564;7.272;2022-09-09T11:16:32;21.40;99.90
831;DHT22;397;50.564;7.272;2022-09-09T11:19:14;21.40;99.90
831;DHT22;397;50.564;7.272;2022-09-09T11:21:45;21.60;99.90
831;DHT22;397;50.564;7.272;2022-09-09T11:24:20;21.70;99.90
831;DHT22;397;50.564;7.272;2022-09-09T11:26:54;21.50;99.90
831;DHT22;397;50.564;7.272;2022-09-09T11:42:39;20.50;99.90
831;DHT22;397;50.564;7.272;2022-09-09T11:45:15;20.50;99.90
831;DHT22;397;50.564;7.272;2022-09-09T11:47:41;20.60;99.90
831;DHT22;397;50.564;7.272;2022-09-09T11:52:45;20.80;99.90
831;DHT22;397;50.564;7.272;2022-09-09T11:55:33;20.90;99.90
831;DHT22;397;50.564;7.272;2022-09-09T12:00:49;21.30;99.90
831;DHT22;397;50.564;7.272;2022-09-09T12:03:44;21.40;99.90
831;DHT22;397;50.564;7.272;2022-09-09T12:06:31;21.30;99.90
831;DHT22;397;50.564;7.272;2022-09-09T12:09:17;21.20;99.90
831;DHT22;397;50.564;7.272;2022-09-09T12:11:42;21.40;99.90
831;DHT22;397;50.564;7.272;2022-09-09T12:16:49;21.80;99.90
831;DHT22;397;50.564;7.272;2022-09-09T12:19:20;22.00;99.90
831;DHT22;397;50.564;7.272;2022-09-09T12:22:00;22.00;99.90
831;DHT22;397;50.564;7.272;2022-09-09T12:24:41;21.90;99.90
831;DHT22;397;50.564;7.272;2022-09-09T12:27:26;22.10;99.90
831;DHT22;397;50.564;7.272;2022-09-09T12:30:02;22.20;99.90
831;DHT22;397;50.564;7.272;2022-09-09T12:32:30;22.20;99.90
831;DHT22;397;50.564;7.272;2022-09-09T12:35:03;22.10;99.90
831;DHT22;397;50.564;7.272;2022-09-09T12:40:19;22.00;99.90
831;DHT22;397;50.564;7.272;2022-09-09T12:42:46;21.90;99.90
831;DHT22;397;50.564;7.272;2022-09-09T12:45:19;21.80;99.90
831;DHT22;397;50.564;7.272;2022-09-09T12:47:50;21.70;99.90
831;DHT22;397;50.564;7.272;2022-09-09T12:50:23;21.70;99.90
831;DHT22;397;50.564;7.272;2022-09-09T12:53:08;21.60;99.90
831;DHT22;397;50.564;7.272;2022-09-09T12:55:31;21.60;99.90
831;DHT22;397;50.564;7.272;2022-09-09T12:58:01;21.70;99.90
831;DHT22;397;50.564;7.272;2022-09-09T13:00:31;21.70;99.90
831;DHT22;397;50.564;7.272;2022-09-09T13:03:13;21.60;99.90
831;DHT22;397;50.564;7.272;2022-09-09T13:05:37;21.60;99.90
831;DHT22;397;50.564;7.272;2022-09-09T13:08:08;21.50;99.90
831;DHT22;397;50.564;7.272;2022-09-09T13:13:15;21.40;99.90
831;DHT22;397;50.564;7.272;2022-09-09T13:15:55;21.30;99.90
831;DHT22;397;50.564;7.272;2022-09-09T13:18:28;21.30;99.90
831;DHT22;397;50.564;7.272;2022-09-09T13:20:56;21.30;99.90
831;DHT22;397;50.564;7.272;2022-09-09T13:23:27;21.30;99.90
831;DHT22;397;50.564;7.272;2022-09-09T13:26:03;21.30;99.90
831;DHT22;397;50.564;7.272;2022-09-09T13:28:28;21.30;99.90
831;DHT22;397;50.564;7.272;2022-09-09T13:31:01;21.20;99.90
831;DHT22;397;50.564;7.272;2022-09-09T13:33:34;21.30;99.90
831;DHT22;397;50.564;7.272;2022-09-09T13:36:06;21.20;99.90
831;DHT22;397;50.564;7.272;2022-09-09T13:38:37;21.30;99.90
831;DHT22;397;50.564;7.272;2022-09-09T13:41:07;21.20;99.90
831;DHT22;397;50.564;7.272;2022-09-09T13:43:45;21.20;99.90
831;DHT22;397;50.564;7.272;2022-09-09T13:46:36;21.10;99.90
831;DHT22;397;50.564;7.272;2022-09-09T13:51:41;20.90;99.90
831;DHT22;397;50.564;7.272;2022-09-09T13:54:14;21.00;99.90
831;DHT22;397;50.564;7.272;2022-09-09T13:56:42;21.00;99.90
831;DHT22;397;50.564;7.272;2022-09-09T13:59:18;21.20;99.90
831;DHT22;397;50.564;7.272;2022-09-09T14:01:47;21.20;99.90
831;DHT22;397;50.564;7.272;2022-09-09T14:04:15;21.30;99.90
831;DHT22;397;50.564;7.272;2022-09-09T14:06:43;21.20;99.90
831;DHT22;397;50.564;7.272;2022-09-09T14:09:13;21.30;99.90
831;DHT22;397;50.564;7.272;2022-09-09T14:11:41;21.10;99.90
831;DHT22;397;50.564;7.272;2022-09-09T14:14:09;21.00;99.90
831;DHT22;397;50.564;7.272;2022-09-09T14:16:37;20.80;99.90
831;DHT22;397;50.564;7.272;2022-09-09T14:19:04;20.60;99.90
831;DHT22;397;50.564;7.272;2022-09-09T14:21:32;20.60;99.90
831;DHT22;397;50.564;7.272;2022-09-09T14:23:59;20.70;99.90
831;DHT22;397;50.564;7.272;2022-09-09T14:26:27;20.60;99.90
831;DHT22;397;50.564;7.272;2022-09-09T14:28:56;20.60;99.90
831;DHT22;397;50.564;7.272;2022-09-09T14:31:24;20.50;99.90
831;DHT22;397;50.564;7.272;2022-09-09T14:33:52;20.30;99.90
831;DHT22;397;50.564;7.272;2022-09-09T14:36:20;20.30;99.90
831;DHT22;397;50.564;7.272;2022-09-09T14:38:49;20.30;99.90
831;DHT22;397;50.564;7.272;2022-09-09T14:41:18;20.10;99.90
831;DHT22;397;50.564;7.272;2022-09-09T14:43:46;20.10;99.90
831;DHT22;397;50.564;7.272;2022-09-09T14:46:16;20.00;99.90
831;DHT22;397;50.564;7.272;2022-09-09T14:48:44;19.90;99.90
831;DHT22;397;50.564;7.272;2022-09-09T14:51:16;19.70;99.90
831;DHT22;397;50.564;7.272;2022-09-09T14:53:46;19.80;99.90
831;DHT22;397;50.564;7.272;2022-09-09T14:56:19;19.90;99.90
831;DHT22;397;50.564;7.272;2022-09-09T14:58:48;19.80;99.90
831;DHT22;397;50.564;7.272;2022-09-09T15:01:19;19.70;99.90
831;DHT22;397;50.564;7.272;2022-09-09T15:03:57;19.60;99.90
831;DHT22;397;50.564;7.272;2022-09-09T15:06:23;19.60;99.90
831;DHT22;397;50.564;7.272;2022-09-09T15:08:51;19.60;99.90
831;DHT22;397;50.564;7.272;2022-09-09T15:11:20;19.80;99.90
831;DHT22;397;50.564;7.272;2022-09-09T15:13:51;19.80;99.90
831;DHT22;397;50.564;7.272;2022-09-09T15:16:24;19.70;99.90
831;DHT22;397;50.564;7.272;2022-09-09T15:18:54;19.70;99.90
831;DHT22;397;50.564;7.272;2022-09-09T15:21:24;19.50;99.90
831;DHT22;397;50.564;7.272;2022-09-09T15:23:52;19.60;99.90
831;DHT22;397;50.564;7.272;2022-09-09T15:26:20;19.60;99.90
831;DHT22;397;50.564;7.272;2022-09-09T15:28:48;19.50;99.90
831;DHT22;397;50.564;7.272;2022-09-09T15:31:19;19.50;99.90
831;DHT22;397;50.564;7.272;2022-09-09T15:33:52;19.60;99.90
831;DHT22;397;50.564;7.272;2022-09-09T15:36:23;19.80;99.90
831;DHT22;397;50.564;7.272;2022-09-09T15:38:51;19.90;99.90
831;DHT22;397;50.564;7.272;2022-09-09T15:41:20;19.80;99.90
831;DHT22;397;50.564;7.272;2022-09-09T15:43:50;19.80;99.90
831;DHT22;397;50.564;7.272;2022-09-09T15:46:24;19.70;99.90
831;DHT22;397;50.564;7.272;2022-09-09T15:48:54;19.50;99.90
831;DHT22;397;50.564;7.272;2022-09-09T15:51:22;19.50;99.90
831;DHT22;397;50.564;7.272;2022-09-09T15:53:58;19.30;99.90
831;DHT22;397;50.564;7.272;2022-09-09T15:56:27;19.30;99.90
831;DHT22;397;50.564;7.272;2022-09-09T15:58:57;19.20;99.90
831;DHT22;397;50.564;7.272;2022-09-09T16:01:26;19.20;99.90
831;DHT22;397;50.564;7.272;2022-09-09T16:03:54;19.20;99.90
831;DHT22;397;50.564;7.272;2022-09-09T16:06:23;19.20;99.90
831;DHT22;397;50.564;7.272;2022-09-09T16:08:52;19.20;99.90
831;DHT22;397;50.564;7.272;2022-09-09T16:11:23;19.10;99.90
831;DHT22;397;50.564;7.272;2022-09-09T16:13:52;19.00;99.90
831;DHT22;397;50.564;7.272;2022-09-09T16:16:23;18.90;99.90
831;DHT22;397;50.564;7.272;2022-09-09T16:18:54;18.80;99.90
831;DHT22;397;50.564;7.272;2022-09-09T16:21:24;18.60;99.90
831;DHT22;397;50.564;7.272;2022-09-09T16:23:53;18.40;99.90
831;DHT22;397;50.564;7.272;2022-09-09T16:26:21;18.40;99.90
831;DHT22;397;50.564;7.272;2022-09-09T16:28:49;18.50;99.90
831;DHT22;397;50.564;7.272;2022-09-09T16:31:21;18.40;99.90
831;DHT22;397;50.564;7.272;2022-09-09T16:33:49;18.40;99.90
831;DHT22;397;50.564;7.272;2022-09-09T16:36:22;18.40;99.90
831;DHT22;397;50.564;7.272;2022-09-09T16:38:54;18.50;99.90
831;DHT22;397;50.564;7.272;2022-09-09T16:41:24;18.50;99.90
831;DHT22;397;50.564;7.272;2022-09-09T16:43:55;18.50;99.90
831;DHT22;397;50.564;7.272;2022-09-09T16:46:23;18.50;99.90
831;DHT22;397;50.564;7.272;2022-09-09T16:48:51;18.50;99.90
831;DHT22;397;50.564;7.272;2022-09-09T16:51:22;18.40;99.90
831;DHT22;397;50.564;7.272;2022-09-09T16:53:52;18.40;99.90
831;DHT22;397;50.564;7.272;2022-09-09T16:56:22;18.50;99.90
831;DHT22;397;50.564;7.272;2022-09-09T16:58:53;18.40;99.90
831;DHT22;397;50.564;7.272;2022-09-09T17:01:24;18.40;99.90
831;DHT22;397;50.564;7.272;2022-09-09T17:03:56;18.20;99.90
831;DHT22;397;50.564;7.272;2022-09-09T17:06:23;18.40;99.90
831;DHT22;397;50.564;7.272;2022-09-09T17:08:59;18.50;99.90
831;DHT22;397;50.564;7.272;2022-09-09T17:11:28;18.50;99.90
831;DHT22;397;50.564;7.272;2022-09-09T17:13:57;18.40;99.90
831;DHT22;397;50.564;7.272;2022-09-09T17:16:28;18.40;99.90
831;DHT22;397;50.564;7.272;2022-09-09T17:18:57;18.30;99.90
831;DHT22;397;50.564;7.272;2022-09-09T17:21:29;18.40;99.90
831;DHT22;397;50.564;7.272;2022-09-09T17:23:57;18.30;99.90
831;DHT22;397;50.564;7.272;2022-09-09T17:26:27;18.00;99.90
831;DHT22;397;50.564;7.272;2022-09-09T17:31:43;18.00;99.90
831;DHT22;397;50.564;7.272;2022-09-09T17:34:11;18.00;99.90
831;DHT22;397;50.564;7.272;2022-09-09T17:36:39;18.00;99.90
831;DHT22;397;50.564;7.272;2022-09-09T17:39:07;18.10;99.90
831;DHT22;397;50.564;7.272;2022-09-09T17:41:39;18.20;99.90
831;DHT22;397;50.564;7.272;2022-09-09T17:44:07;18.10;99.90
831;DHT22;397;50.564;7.272;2022-09-09T17:46:40;18.10;99.90
831;DHT22;397;50.564;7.272;2022-09-09T17:49:10;18.20;99.90
831;DHT22;397;50.564;7.272;2022-09-09T17:51:38;18.10;99.90
831;DHT22;397;50.564;7.272;2022-09-09T17:54:14;18.00;99.90
831;DHT22;397;50.564;7.272;2022-09-09T17:56:38;18.00;99.90
831;DHT22;397;50.564;7.272;2022-09-09T17:59:08;17.80;99.90
831;DHT22;397;50.564;7.272;2022-09-09T18:01:39;17.80;99.90
831;DHT22;397;50.564;7.272;2022-09-09T18:04:08;17.80;99.90
831;DHT22;397;50.564;7.272;2022-09-09T18:06:39;17.70;99.90
831;DHT22;397;50.564;7.272;2022-09-09T18:09:09;17.70;99.90
831;DHT22;397;50.564;7.272;2022-09-09T18:11:39;17.60;99.90
831;DHT22;397;50.564;7.272;2022-09-09T18:14:10;17.60;99.90
831;DHT22;397;50.564;7.272;2022-09-09T18:16:39;17.60;99.90
831;DHT22;397;50.564;7.272;2022-09-09T18:19:09;17.50;99.90
831;DHT22;397;50.564;7.272;2022-09-09T18:21:40;17.40;99.90
831;DHT22;397;50.564;7.272;2022-09-09T18:24:08;17.50;99.90
831;DHT22;397;50.564;7.272;2022-09-09T18:26:37;17.40;99.90
831;DHT22;397;50.564;7.272;2022-09-09T18:29:11;17.40;99.90
831;DHT22;397;50.564;7.272;2022-09-09T18:31:39;17.40;99.90
831;DHT22;397;50.564;7.272;2022-09-09T18:34:10;17.40;99.90
831;DHT22;397;50.564;7.272;2022-09-09T18:36:44;17.20;99.90
831;DHT22;397;50.564;7.272;2022-09-09T18:39:14;17.20;99.90
831;DHT22;397;50.564;7.272;2022-09-09T18:41:47;17.10;99.90
831;DHT22;397;50.564;7.272;2022-09-09T18:44:18;17.10;99.90
831;DHT22;397;50.564;7.272;2022-09-09T18:46:47;17.10;99.90
831;DHT22;397;50.564;7.272;2022-09-09T18:49:15;17.20;99.90